Time;durP1;ratioP1;P1;durP2;ratioP2;P2;SDS_P1;SDS_P2;PMS_P1;PMS_P2;Temp;Humidity;BMP_temperature;BMP_pressure;BME280_temperature;BME280_humidity;BME280_pressure;Samples;Min_cycle;Max_cycle;Signal;HPM_P1;HPM_P2
2022/04/28 00:01:07;;;;;;;4.67;4.17;;;;;;;;;;5032688;28;20218;-35
2022/04/28 00:03:34;;;;;;;4.67;3.80;;;;;;;;;;5027194;28;20199;-37
2022/04/28 00:06:01;;;;;;;4.77;4.37;;;;;;;;;;5027520;28;20226;-34
2022/04/28 00:08:30;;;;;;;4.97;4.17;;;;;;;;;;5024191;28;20199;-40
2022/04/28 00:10:58;;;;;;;5.03;4.00;;;;;;;;;;5024431;28;20195;-36
2022/04/28 00:13:26;;;;;;;5.37;4.33;;;;;;;;;;5028374;28;20206;-34
2022/04/28 00:15:53;;;;;;;5.70;4.10;;;;;;;;;;5012687;28;20231;-35
2022/04/28 00:18:21;;;;;;;7.83;4.17;;;;;;;;;;5012801;28;20206;-37
2022/04/28 00:20:48;;;;;;;4.20;3.80;;;;;;;;;;5028859;28;20206;-36
2022/04/28 00:23:15;;;;;;;4.10;3.70;;;;;;;;;;5012312;28;20234;-38
2022/04/28 00:25:43;;;;;;;4.10;3.23;;;;;;;;;;5019372;28;20229;-34
2022/04/28 00:28:10;;;;;;;3.80;3.50;;;;;;;;;;5022435;28;20479;-39
2022/04/28 00:30:37;;;;;;;4.77;3.73;;;;;;;;;;5020949;28;20210;-33
2022/04/28 00:33:05;;;;;;;4.37;3.97;;;;;;;;;;5032351;28;20207;-31
2022/04/28 00:35:32;;;;;;;4.57;4.17;;;;;;;;;;5018441;28;20227;-32
2022/04/28 00:37:59;;;;;;;4.70;4.20;;;;;;;;;;5011047;28;20286;-36
2022/04/28 00:40:27;;;;;;;4.03;3.70;;;;;;;;;;5010655;28;20207;-32
2022/04/28 00:43:18;;;;;;;5.33;4.13;;;;;;;;;;5015070;28;20223;-35
2022/04/28 00:45:42;;;;;;;5.53;3.90;;;;;;;;;;5021330;28;20226;-35
2022/04/28 00:50:54;;;;;;;5.23;4.03;;;;;;;;;;4998405;28;20276;-34
2022/04/28 00:53:22;;;;;;;5.43;4.17;;;;;;;;;;5016425;28;20206;-40
2022/04/28 00:55:49;;;;;;;4.03;3.47;;;;;;;;;;5010374;28;20234;-35
2022/04/28 00:58:17;;;;;;;5.67;4.10;;;;;;;;;;5024734;28;20214;-40
2022/04/28 01:00:44;;;;;;;4.87;3.67;;;;;;;;;;5024679;28;20212;-40
2022/04/28 01:03:12;;;;;;;4.30;3.90;;;;;;;;;;5024747;28;20306;-37
2022/04/28 01:05:39;;;;;;;4.30;3.90;;;;;;;;;;5019349;28;20226;-31
2022/04/28 01:08:07;;;;;;;4.20;3.70;;;;;;;;;;5010511;28;20214;-36
2022/04/28 01:10:36;;;;;;;3.90;3.50;;;;;;;;;;5013937;28;20215;-33
2022/04/28 01:13:03;;;;;;;3.93;3.30;;;;;;;;;;5026872;28;20199;-37
2022/04/28 01:15:31;;;;;;;4.07;3.67;;;;;;;;;;5021242;28;20292;-39
2022/04/28 01:17:58;;;;;;;3.80;3.50;;;;;;;;;;5013027;28;20215;-38
2022/04/28 01:20:25;;;;;;;4.20;3.80;;;;;;;;;;5022908;28;20213;-38
2022/04/28 01:22:54;;;;;;;4.13;3.73;;;;;;;;;;5023503;28;20250;-40
2022/04/28 01:25:21;;;;;;;4.97;4.30;;;;;;;;;;5025919;28;20245;-33
2022/04/28 01:27:48;;;;;;;5.07;4.57;;;;;;;;;;5021047;28;20213;-39
2022/04/28 01:30:16;;;;;;;6.63;4.97;;;;;;;;;;5021146;28;20206;-36
2022/04/28 01:32:43;;;;;;;6.20;4.93;;;;;;;;;;5031192;28;20198;-36
2022/04/28 01:35:11;;;;;;;5.03;4.03;;;;;;;;;;5025940;28;20284;-32
2022/04/28 01:37:38;;;;;;;5.73;4.33;;;;;;;;;;5021565;28;20216;-37
2022/04/28 01:40:11;;;;;;;4.87;4.43;;;;;;;;;;5017012;28;20298;-37
2022/04/28 01:42:38;;;;;;;4.87;3.67;;;;;;;;;;5021814;28;20230;-36
2022/04/28 01:45:07;;;;;;;4.90;4.43;;;;;;;;;;5010971;28;20210;-38
2022/04/28 01:47:34;;;;;;;4.47;3.80;;;;;;;;;;5027581;28;20210;-37
2022/04/28 01:50:01;;;;;;;4.83;3.70;;;;;;;;;;5023008;28;20206;-40
2022/04/28 01:55:17;;;;;;;4.80;4.30;;;;;;;;;;4986369;28;20252;-35
2022/04/28 01:57:45;;;;;;;6.93;4.63;;;;;;;;;;5014729;28;20217;-40
2022/04/28 02:00:13;;;;;;;4.47;4.00;;;;;;;;;;5025000;28;20225;-41
2022/04/28 02:02:40;;;;;;;4.80;4.37;;;;;;;;;;5012243;28;20223;-34
2022/04/28 02:05:09;;;;;;;5.37;4.43;;;;;;;;;;5020405;28;20203;-34
2022/04/28 02:07:36;;;;;;;4.47;4.07;;;;;;;;;;5024665;28;20203;-40
2022/04/28 02:10:04;;;;;;;4.17;3.77;;;;;;;;;;5013461;28;20207;-31
2022/04/28 02:12:32;;;;;;;4.07;3.67;;;;;;;;;;5027091;28;20207;-39
2022/04/28 02:14:59;;;;;;;4.87;3.93;;;;;;;;;;5025041;28;20195;-40
2022/04/28 02:17:28;;;;;;;3.63;3.33;;;;;;;;;;5017664;28;20210;-34
2022/04/28 02:19:55;;;;;;;5.13;4.10;;;;;;;;;;5012802;28;20203;-35
2022/04/28 02:22:22;;;;;;;5.07;4.20;;;;;;;;;;5019622;28;20306;-36
2022/04/28 02:24:50;;;;;;;4.77;4.33;;;;;;;;;;5013921;28;20689;-38
2022/04/28 02:27:17;;;;;;;5.00;4.13;;;;;;;;;;5022532;28;20206;-33
2022/04/28 02:29:46;;;;;;;4.00;3.70;;;;;;;;;;5021319;28;20213;-32
2022/04/28 02:32:13;;;;;;;17.47;4.57;;;;;;;;;;5029767;28;20202;-39
2022/04/28 02:34:40;;;;;;;4.20;3.30;;;;;;;;;;5021664;28;20211;-35
2022/04/28 02:37:07;;;;;;;3.60;3.27;;;;;;;;;;5021386;28;20222;-37
2022/04/28 02:39:34;;;;;;;4.77;4.20;;;;;;;;;;5021316;28;20199;-38
2022/04/28 02:42:01;;;;;;;6.90;3.83;;;;;;;;;;5013189;28;20229;-35
2022/04/28 02:44:29;;;;;;;4.20;3.80;;;;;;;;;;5021486;28;20202;-33
2022/04/28 02:46:57;;;;;;;4.17;3.43;;;;;;;;;;5010027;28;20258;-32
2022/04/28 02:49:24;;;;;;;5.47;3.70;;;;;;;;;;5010480;28;20196;-32
2022/04/28 02:51:51;;;;;;;4.53;4.13;;;;;;;;;;5017890;28;20204;-36
2022/04/28 02:54:19;;;;;;;4.63;3.90;;;;;;;;;;5025712;28;20198;-33
2022/04/28 02:56:46;;;;;;;4.23;3.83;;;;;;;;;;5018762;28;20238;-35
2022/04/28 02:59:13;;;;;;;4.90;4.37;;;;;;;;;;5018115;28;20217;-37
2022/04/28 03:01:40;;;;;;;4.30;3.87;;;;;;;;;;5021643;28;20202;-36
2022/04/28 03:04:08;;;;;;;4.37;3.93;;;;;;;;;;5033244;28;20294;-37
2022/04/28 03:12:05;;;;;;;4.23;3.80;;;;;;;;;;5021205;28;20214;-35
2022/04/28 03:14:32;;;;;;;4.77;3.83;;;;;;;;;;5024136;28;20210;-33
2022/04/28 03:17:00;;;;;;;3.53;3.20;;;;;;;;;;5033582;28;20227;-38
2022/04/28 03:19:28;;;;;;;4.73;3.80;;;;;;;;;;5024655;28;20200;-35
2022/04/28 03:21:55;;;;;;;4.10;3.63;;;;;;;;;;5022116;28;20319;-34
2022/04/28 03:24:22;;;;;;;5.47;4.07;;;;;;;;;;5013390;28;20207;-35
2022/04/28 03:26:49;;;;;;;4.87;3.43;;;;;;;;;;5014633;28;20234;-39
2022/04/28 03:29:17;;;;;;;4.07;3.63;;;;;;;;;;5018389;28;20207;-37
2022/04/28 03:31:44;;;;;;;3.73;3.20;;;;;;;;;;5030941;28;20238;-42
2022/04/28 03:34:11;;;;;;;5.07;3.93;;;;;;;;;;5030117;28;20214;-36
2022/04/28 03:36:52;;;;;;;4.73;3.83;;;;;;;;;;5027578;28;20227;-35
2022/04/28 03:39:19;;;;;;;4.23;3.83;;;;;;;;;;5027595;28;20203;-39
2022/04/28 03:41:46;;;;;;;4.70;3.60;;;;;;;;;;5015769;28;20558;-34
2022/04/28 03:44:13;;;;;;;4.63;4.23;;;;;;;;;;5022640;28;20211;-35
2022/04/28 03:46:40;;;;;;;4.50;4.10;;;;;;;;;;5015180;28;20224;-34
2022/04/28 03:49:08;;;;;;;4.60;4.20;;;;;;;;;;5011993;28;20203;-30
2022/04/28 03:51:35;;;;;;;4.37;3.80;;;;;;;;;;5028735;28;20206;-37
2022/04/28 03:54:04;;;;;;;4.77;3.90;;;;;;;;;;5019845;28;20203;-35
2022/04/28 03:56:31;;;;;;;4.57;3.57;;;;;;;;;;5014943;28;20236;-31
2022/04/28 03:58:58;;;;;;;5.67;3.50;;;;;;;;;;5012313;28;20215;-35
2022/04/28 04:01:26;;;;;;;4.23;3.80;;;;;;;;;;5027827;28;20242;-32
2022/04/28 04:03:53;;;;;;;4.90;3.90;;;;;;;;;;5027703;28;20227;-36
2022/04/28 04:06:20;;;;;;;4.60;3.97;;;;;;;;;;5024247;28;20222;-33
2022/04/28 04:08:48;;;;;;;4.63;4.23;;;;;;;;;;5021543;28;20203;-36
2022/04/28 04:11:16;;;;;;;4.73;4.23;;;;;;;;;;5018945;28;20237;-31
2022/04/28 04:13:43;;;;;;;4.37;3.97;;;;;;;;;;5017574;28;20204;-40
2022/04/28 04:16:11;;;;;;;4.57;4.17;;;;;;;;;;5012342;28;20234;-37
2022/04/28 04:18:38;;;;;;;4.00;3.60;;;;;;;;;;5012808;28;20226;-40
2022/04/28 04:21:06;;;;;;;5.60;3.60;;;;;;;;;;5028599;28;20213;-34
2022/04/28 04:23:33;;;;;;;5.30;4.30;;;;;;;;;;5032803;28;20219;-37
2022/04/28 04:26:01;;;;;;;4.03;3.37;;;;;;;;;;5027877;28;20231;-32
2022/04/28 04:28:30;;;;;;;5.20;4.00;;;;;;;;;;5029635;28;20214;-37
2022/04/28 04:33:42;;;;;;;4.10;3.70;;;;;;;;;;5034220;28;20198;-34
2022/04/28 04:36:09;;;;;;;4.00;3.60;;;;;;;;;;5024163;28;20229;-34
2022/04/28 04:38:36;;;;;;;5.00;4.00;;;;;;;;;;5031064;28;20210;-35
2022/04/28 04:41:03;;;;;;;4.30;3.90;;;;;;;;;;5024543;28;20200;-36
2022/04/28 04:43:31;;;;;;;4.73;3.80;;;;;;;;;;5024936;28;20215;-33
2022/04/28 04:45:59;;;;;;;3.97;3.63;;;;;;;;;;5025197;28;20226;-34
2022/04/28 04:48:26;;;;;;;7.30;3.60;;;;;;;;;;5013852;28;20751;-38
2022/04/28 04:50:54;;;;;;;5.50;3.83;;;;;;;;;;5019589;28;20203;-38
2022/04/28 04:53:21;;;;;;;4.80;4.30;;;;;;;;;;5024632;28;20267;-41
2022/04/28 04:55:49;;;;;;;9.90;8.97;;;;;;;;;;5024769;28;20222;-38
2022/04/28 04:58:16;;;;;;;6.60;4.47;;;;;;;;;;5026723;28;20226;-35
2022/04/28 05:00:44;;;;;;;5.23;4.73;;;;;;;;;;5027054;28;20205;-37
2022/04/28 05:03:12;;;;;;;5.93;4.60;;;;;;;;;;5033785;28;20222;-29
2022/04/28 05:05:40;;;;;;;4.50;3.87;;;;;;;;;;5021858;28;20227;-33
2022/04/28 05:08:07;;;;;;;4.17;3.53;;;;;;;;;;5020380;28;20214;-37
2022/04/28 05:10:34;;;;;;;4.90;3.83;;;;;;;;;;5025651;28;20672;-34
2022/04/28 05:13:01;;;;;;;5.03;4.53;;;;;;;;;;5026303;28;20209;-41
2022/04/28 05:15:28;;;;;;;6.23;4.30;;;;;;;;;;5022398;28;20230;-38
2022/04/28 05:17:56;;;;;;;4.40;3.50;;;;;;;;;;5024654;28;20233;-36
2022/04/28 05:20:24;;;;;;;4.37;3.97;;;;;;;;;;5015924;28;20210;-36
2022/04/28 05:22:51;;;;;;;5.60;4.33;;;;;;;;;;5015249;28;20223;-34
2022/04/28 05:25:18;;;;;;;7.20;4.60;;;;;;;;;;5030124;28;20226;-35
2022/04/28 05:27:46;;;;;;;5.30;4.80;;;;;;;;;;5020574;28;20207;-37
2022/04/28 05:30:13;;;;;;;7.67;4.23;;;;;;;;;;5027813;28;20199;-37
2022/04/28 05:32:40;;;;;;;6.93;4.30;;;;;;;;;;5031782;28;20211;-35
2022/04/28 05:35:09;;;;;;;6.00;5.23;;;;;;;;;;5027733;28;20207;-40
2022/04/28 05:37:37;;;;;;;7.37;5.30;;;;;;;;;;5014647;28;20215;-36
2022/04/28 05:40:04;;;;;;;4.90;4.40;;;;;;;;;;5028709;28;20210;-31
2022/04/28 05:47:58;;;;;;;5.63;5.03;;;;;;;;;;5031085;28;20212;-34
2022/04/28 05:50:26;;;;;;;4.93;4.47;;;;;;;;;;5020395;28;20211;-34
2022/04/28 05:52:53;;;;;;;9.27;4.80;;;;;;;;;;5028517;28;20207;-40
2022/04/28 05:55:21;;;;;;;5.43;4.87;;;;;;;;;;5016400;28;20227;-35
2022/04/28 05:57:48;;;;;;;5.33;4.80;;;;;;;;;;5017024;28;20215;-40
2022/04/28 06:00:16;;;;;;;5.60;5.10;;;;;;;;;;5023734;28;20202;-33
2022/04/28 06:02:43;;;;;;;5.63;5.03;;;;;;;;;;5031995;28;20301;-32
2022/04/28 06:05:10;;;;;;;9.93;4.23;;;;;;;;;;5017781;28;20204;-30
2022/04/28 06:07:38;;;;;;;5.83;4.80;;;;;;;;;;5019911;28;20218;-40
2022/04/28 06:10:06;;;;;;;8.57;5.10;;;;;;;;;;5017709;28;20222;-37
2022/04/28 06:12:33;;;;;;;7.07;5.73;;;;;;;;;;5016218;28;20264;-35
2022/04/28 06:15:00;;;;;;;5.90;4.97;;;;;;;;;;5019132;28;20207;-37
2022/04/28 06:17:27;;;;;;;6.77;4.40;;;;;;;;;;5011976;28;20233;-36
2022/04/28 06:19:54;;;;;;;6.07;5.30;;;;;;;;;;5015936;28;20205;-36
2022/04/28 06:22:21;;;;;;;7.23;5.20;;;;;;;;;;5012716;28;20207;-34
2022/04/28 06:24:52;;;;;;;9.40;5.30;;;;;;;;;;5021174;28;20223;-37
2022/04/28 06:27:20;;;;;;;6.23;5.60;;;;;;;;;;5025741;28;20211;-40
2022/04/28 06:29:48;;;;;;;6.80;5.30;;;;;;;;;;5023089;28;20273;-40
2022/04/28 06:32:16;;;;;;;6.50;5.33;;;;;;;;;;5031965;28;20248;-36
2022/04/28 06:34:43;;;;;;;8.60;5.87;;;;;;;;;;5024804;28;20207;-36
2022/04/28 06:37:10;;;;;;;6.53;5.23;;;;;;;;;;5033428;28;20229;-34
2022/04/28 06:39:37;;;;;;;5.67;4.90;;;;;;;;;;5023442;28;20206;-37
2022/04/28 06:42:07;;;;;;;6.03;5.10;;;;;;;;;;5017269;28;20215;-33
2022/04/28 06:44:34;;;;;;;6.10;5.50;;;;;;;;;;5017994;28;20223;-37
2022/04/28 06:47:01;;;;;;;5.30;4.80;;;;;;;;;;5015773;28;20235;-40
2022/04/28 06:49:28;;;;;;;6.40;5.03;;;;;;;;;;5016886;28;20214;-37
2022/04/28 06:51:55;;;;;;;6.90;4.90;;;;;;;;;;5032064;28;20203;-37
2022/04/28 06:54:22;;;;;;;5.43;4.40;;;;;;;;;;5035126;28;20294;-37
2022/04/28 06:56:50;;;;;;;5.33;4.80;;;;;;;;;;5018304;28;20426;-34
2022/04/28 06:59:19;;;;;;;5.80;4.53;;;;;;;;;;5022776;28;20211;-35
2022/04/28 07:01:47;;;;;;;5.10;4.60;;;;;;;;;;5034540;28;20214;-39
2022/04/28 07:04:14;;;;;;;4.93;4.10;;;;;;;;;;5029699;28;20218;-35
2022/04/28 07:06:41;;;;;;;6.70;5.00;;;;;;;;;;5028316;28;20319;-32
2022/04/28 07:09:08;;;;;;;4.93;4.43;;;;;;;;;;5014766;28;20199;-33
2022/04/28 07:11:35;;;;;;;5.17;4.13;;;;;;;;;;5019094;28;20222;-34
2022/04/28 07:14:02;;;;;;;5.20;4.07;;;;;;;;;;5025780;28;20206;-40
2022/04/28 07:16:31;;;;;;;5.93;4.37;;;;;;;;;;5014514;28;20553;-37
2022/04/28 07:18:58;;;;;;;5.03;4.40;;;;;;;;;;5015376;28;20221;-35
2022/04/28 07:21:25;;;;;;;6.73;4.10;;;;;;;;;;5031902;28;20213;-36
2022/04/28 07:23:52;;;;;;;4.70;4.00;;;;;;;;;;5033561;28;20233;-36
2022/04/28 07:26:19;;;;;;;6.63;3.60;;;;;;;;;;5022089;28;20227;-38
2022/04/28 07:28:46;;;;;;;4.30;3.90;;;;;;;;;;5021519;28;20214;-38
2022/04/28 07:31:13;;;;;;;3.70;3.17;;;;;;;;;;5027919;28;20203;-39
2022/04/28 07:33:42;;;;;;;4.10;3.33;;;;;;;;;;5033993;28;20202;-38
2022/04/28 07:36:09;;;;;;;5.57;3.23;;;;;;;;;;5018853;28;20219;-35
2022/04/28 07:38:36;;;;;;;5.20;3.83;;;;;;;;;;5029997;28;20207;-34
2022/04/28 07:41:03;;;;;;;4.17;3.60;;;;;;;;;;5020506;28;20210;-40
2022/04/28 07:43:31;;;;;;;4.80;3.73;;;;;;;;;;5025344;28;20231;-35
2022/04/28 07:45:58;;;;;;;5.13;4.03;;;;;;;;;;5021981;28;20230;-35
2022/04/28 07:48:25;;;;;;;4.90;3.23;;;;;;;;;;5013619;28;20199;-38
2022/04/28 07:50:53;;;;;;;5.00;3.47;;;;;;;;;;5019598;28;20306;-36
2022/04/28 07:53:21;;;;;;;5.37;3.57;;;;;;;;;;5028829;28;20194;-38
2022/04/28 07:56:10;;;;;;;5.07;3.63;;;;;;;;;;5030582;28;20222;-33
2022/04/28 07:58:36;;;;;;;4.00;3.40;;;;;;;;;;4988368;28;1069383;-37
2022/04/28 08:01:03;;;;;;;4.57;3.80;;;;;;;;;;5022477;28;20203;-37
2022/04/28 08:03:30;;;;;;;4.40;3.70;;;;;;;;;;5014936;28;20244;-36
2022/04/28 08:05:59;;;;;;;4.27;3.87;;;;;;;;;;5017765;28;20233;-38
2022/04/28 08:08:26;;;;;;;4.97;4.20;;;;;;;;;;5024436;28;20209;-31
2022/04/28 08:10:53;;;;;;;4.20;3.80;;;;;;;;;;5015703;28;20238;-38
2022/04/28 08:13:21;;;;;;;6.13;4.20;;;;;;;;;;5029488;28;20206;-36
2022/04/28 08:15:48;;;;;;;5.83;4.07;;;;;;;;;;5034370;28;20229;-37
2022/04/28 08:18:15;;;;;;;5.93;3.97;;;;;;;;;;5035055;28;20241;-37
2022/04/28 08:20:42;;;;;;;4.67;4.03;;;;;;;;;;5022396;28;20207;-31
2022/04/28 08:23:11;;;;;;;5.87;4.07;;;;;;;;;;5021510;28;20206;-35
2022/04/28 08:25:38;;;;;;;3.93;3.53;;;;;;;;;;5015470;28;20243;-33
2022/04/28 08:28:05;;;;;;;4.80;3.80;;;;;;;;;;5027967;28;20199;-37
2022/04/28 08:30:33;;;;;;;4.50;3.37;;;;;;;;;;5026154;28;20204;-39
2022/04/28 08:33:01;;;;;;;3.40;3.00;;;;;;;;;;5014657;28;20214;-37
2022/04/28 08:35:29;;;;;;;3.73;3.27;;;;;;;;;;5024451;28;20233;-36
2022/04/28 08:37:57;;;;;;;4.00;3.30;;;;;;;;;;5028027;28;20213;-37
2022/04/28 08:40:26;;;;;;;3.40;3.10;;;;;;;;;;5020500;28;20293;-35
2022/04/28 08:42:55;;;;;;;6.70;3.50;;;;;;;;;;5022412;28;20270;-38
2022/04/28 08:45:27;;;;;;;3.97;3.27;;;;;;;;;;5012922;28;20230;-32
2022/04/28 08:47:54;;;;;;;4.30;3.50;;;;;;;;;;5022260;28;20218;-35
2022/04/28 08:50:23;;;;;;;3.80;3.10;;;;;;;;;;5027278;28;20207;-35
2022/04/28 08:52:50;;;;;;;3.60;3.30;;;;;;;;;;5023755;28;20207;-34
2022/04/28 08:55:17;;;;;;;3.17;2.83;;;;;;;;;;5028165;28;20219;-36
2022/04/28 08:57:46;;;;;;;4.30;2.53;;;;;;;;;;5019529;28;20234;-34
2022/04/28 09:00:13;;;;;;;2.70;2.50;;;;;;;;;;5024573;28;20198;-37
2022/04/28 09:02:40;;;;;;;3.00;2.70;;;;;;;;;;5033995;28;20209;-31
2022/04/28 09:05:10;;;;;;;3.53;2.97;;;;;;;;;;5023935;28;20223;-35
2022/04/28 09:07:39;;;;;;;3.00;2.67;;;;;;;;;;5030596;28;20211;-33
2022/04/28 09:10:25;;;;;;;3.27;2.30;;;;;;;;;;5030885;28;20203;-35
2022/04/28 09:14:09;;;;;;;3.83;2.60;;;;;;;;;;5016965;28;20203;-32
2022/04/28 09:15:50;;;;;;;3.00;2.67;;;;;;;;;;5032584;28;20281;-35
2022/04/28 09:18:17;;;;;;;2.73;2.20;;;;;;;;;;5033645;28;20277;-37
2022/04/28 09:20:44;;;;;;;2.50;2.30;;;;;;;;;;5027334;28;20210;-36
2022/04/28 09:23:12;;;;;;;2.60;2.40;;;;;;;;;;5024947;28;20199;-38
2022/04/28 09:25:39;;;;;;;2.73;2.53;;;;;;;;;;5014608;28;20239;-33
2022/04/28 09:28:10;;;;;;;5.73;2.27;;;;;;;;;;5028630;28;20207;-39
2022/04/28 09:30:38;;;;;;;3.17;2.00;;;;;;;;;;5011781;28;20203;-32
2022/04/28 09:33:13;;;;;;;2.60;2.17;;;;;;;;;;5011743;28;20227;-32
2022/04/28 09:35:45;;;;;;;3.57;2.20;;;;;;;;;;5011289;28;20218;-36
2022/04/28 09:38:13;;;;;;;2.43;2.23;;;;;;;;;;5011322;28;20238;-37
2022/04/28 09:43:26;;;;;;;3.37;2.67;;;;;;;;;;5024008;28;20218;-34
2022/04/28 09:45:53;;;;;;;2.10;2.00;;;;;;;;;;5018881;28;20223;-33
2022/04/28 09:48:20;;;;;;;4.10;2.60;;;;;;;;;;5032410;28;20199;-39
2022/04/28 09:50:48;;;;;;;2.83;2.60;;;;;;;;;;5019809;28;20211;-36
2022/04/28 09:53:15;;;;;;;2.70;2.50;;;;;;;;;;5026696;28;20203;-34
2022/04/28 09:55:43;;;;;;;2.20;2.00;;;;;;;;;;5026607;28;20241;-37
2022/04/28 09:58:11;;;;;;;3.87;2.57;;;;;;;;;;5026351;28;20211;-31
2022/04/28 10:00:40;;;;;;;9.73;2.30;;;;;;;;;;5021903;28;20269;-38
2022/04/28 10:03:10;;;;;;;2.13;2.03;;;;;;;;;;5032695;28;20206;-35
2022/04/28 10:05:38;;;;;;;14.23;2.10;;;;;;;;;;5026023;28;20321;-35
2022/04/28 10:08:06;;;;;;;3.57;2.70;;;;;;;;;;5027724;28;20203;-37
2022/04/28 10:10:36;;;;;;;3.77;2.50;;;;;;;;;;5016458;28;20215;-37
2022/04/28 10:13:03;;;;;;;2.63;2.43;;;;;;;;;;5016771;28;20210;-36
2022/04/28 10:15:33;;;;;;;3.80;2.70;;;;;;;;;;5024071;28;20214;-34
2022/04/28 10:18:05;;;;;;;4.03;2.90;;;;;;;;;;5032276;28;20214;-33
2022/04/28 10:20:35;;;;;;;2.97;2.73;;;;;;;;;;5026977;28;20207;-33
2022/04/28 10:23:05;;;;;;;3.10;2.50;;;;;;;;;;5031679;28;20294;-33
2022/04/28 10:34:08;;;;;;;2.63;2.43;;;;;;;;;;5012803;28;20225;-33
2022/04/28 10:36:50;;;;;;;3.00;2.67;;;;;;;;;;5023436;28;20276;-38
2022/04/28 10:39:17;;;;;;;3.27;2.07;;;;;;;;;;5021649;28;20198;-37
2022/04/28 10:41:44;;;;;;;2.80;2.60;;;;;;;;;;5026962;28;20213;-35
2022/04/28 10:44:18;;;;;;;2.50;2.30;;;;;;;;;;5027408;28;20223;-28
2022/04/28 10:46:59;;;;;;;3.10;2.33;;;;;;;;;;5032269;28;20222;-30
2022/04/28 10:49:26;;;;;;;4.03;2.30;;;;;;;;;;5028942;28;20221;-33
2022/04/28 10:51:59;;;;;;;3.33;2.47;;;;;;;;;;5030094;28;20207;-31
2022/04/28 10:54:29;;;;;;;3.33;2.23;;;;;;;;;;5028688;28;20191;-35
2022/04/28 10:57:02;;;;;;;2.50;2.30;;;;;;;;;;5023703;28;20261;-37
2022/04/28 10:59:34;;;;;;;3.77;2.47;;;;;;;;;;5028159;28;20210;-34
2022/04/28 11:02:17;;;;;;;2.50;2.30;;;;;;;;;;5012483;28;20211;-30
2022/04/28 11:04:45;;;;;;;4.63;2.27;;;;;;;;;;5016818;28;20684;-33
2022/04/28 11:07:16;;;;;;;2.80;2.50;;;;;;;;;;5031276;28;20227;-38
2022/04/28 11:09:44;;;;;;;2.63;2.43;;;;;;;;;;5023379;28;20211;-29
2022/04/28 11:12:12;;;;;;;2.77;2.43;;;;;;;;;;5019018;28;20207;-37
2022/04/28 11:14:45;;;;;;;2.20;2.10;;;;;;;;;;5023421;28;20204;-33
2022/04/28 11:17:13;;;;;;;2.73;2.50;;;;;;;;;;5032959;28;20227;-33
2022/04/28 11:19:41;;;;;;;2.50;2.30;;;;;;;;;;5031064;28;20217;-39
2022/04/28 11:22:08;;;;;;;2.50;2.30;;;;;;;;;;5029949;28;20227;-34
2022/04/28 11:24:41;;;;;;;2.33;2.13;;;;;;;;;;5018957;28;20227;-34
2022/04/28 11:27:09;;;;;;;2.70;2.50;;;;;;;;;;5017279;28;20308;-34
2022/04/28 11:29:39;;;;;;;4.97;2.70;;;;;;;;;;5016229;28;20223;-35
2022/04/28 11:32:09;;;;;;;3.30;2.23;;;;;;;;;;5035274;28;20209;-32
2022/04/28 11:34:36;;;;;;;2.30;2.10;;;;;;;;;;5031164;28;20240;-37
2022/04/28 11:37:13;;;;;;;2.80;2.13;;;;;;;;;;5034978;28;20223;-34
2022/04/28 11:39:43;;;;;;;2.23;2.03;;;;;;;;;;5035450;28;20271;-35
2022/04/28 11:42:12;;;;;;;2.27;2.00;;;;;;;;;;5030247;28;20205;-35
2022/04/28 11:44:45;;;;;;;3.07;2.40;;;;;;;;;;5017093;28;20238;-36
2022/04/28 11:47:12;;;;;;;2.37;2.13;;;;;;;;;;5035650;28;20222;-33
2022/04/28 11:49:40;;;;;;;2.17;2.00;;;;;;;;;;5031795;28;20210;-37
2022/04/28 11:52:20;;;;;;;2.57;2.00;;;;;;;;;;5022859;28;20203;-37
2022/04/28 11:54:52;;;;;;;2.80;2.20;;;;;;;;;;5022927;28;20211;-32
2022/04/28 11:57:19;;;;;;;2.87;2.30;;;;;;;;;;5013069;28;20223;-30
2022/04/28 11:59:48;;;;;;;2.77;2.40;;;;;;;;;;5024888;28;20453;-33
2022/04/28 12:02:25;;;;;;;2.87;2.43;;;;;;;;;;5034861;28;20470;-32
2022/04/28 12:04:52;;;;;;;2.50;2.20;;;;;;;;;;5017192;28;20225;-32
2022/04/28 12:07:20;;;;;;;4.40;3.07;;;;;;;;;;5014208;28;20453;-36
2022/04/28 12:15:18;;;;;;;2.70;2.50;;;;;;;;;;5020242;28;20292;-38
2022/04/28 12:20:39;;;;;;;2.67;2.20;;;;;;;;;;5031684;28;20257;-35
2022/04/28 12:23:07;;;;;;;2.47;2.30;;;;;;;;;;5016151;28;20207;-34
2022/04/28 12:25:38;;;;;;;2.50;2.30;;;;;;;;;;5027529;28;20237;-32
2022/04/28 12:28:06;;;;;;;2.40;2.23;;;;;;;;;;5030028;28;20199;-33
2022/04/28 12:30:35;;;;;;;3.40;2.50;;;;;;;;;;5034476;28;20195;-35
2022/04/28 12:33:05;;;;;;;3.37;2.20;;;;;;;;;;5033118;28;20214;-39
2022/04/28 12:35:36;;;;;;;2.07;1.97;;;;;;;;;;5023832;28;20261;-34
2022/04/28 12:38:06;;;;;;;2.67;2.47;;;;;;;;;;5020404;28;20202;-44
2022/04/28 12:40:39;;;;;;;2.53;2.20;;;;;;;;;;5028931;28;20261;-37
2022/04/28 12:43:08;;;;;;;2.53;2.33;;;;;;;;;;5019886;28;20206;-35
2022/04/28 12:45:43;;;;;;;2.30;2.10;;;;;;;;;;5030588;28;20226;-36
2022/04/28 12:48:23;;;;;;;2.30;2.10;;;;;;;;;;5033379;28;20246;-32
2022/04/28 12:50:50;;;;;;;3.00;2.60;;;;;;;;;;5025512;28;20203;-33
2022/04/28 12:53:31;;;;;;;3.10;2.80;;;;;;;;;;5027901;28;20211;-39
2022/04/28 12:56:02;;;;;;;2.70;2.50;;;;;;;;;;5017002;28;20226;-35
2022/04/28 12:58:32;;;;;;;3.20;2.80;;;;;;;;;;5017321;28;20211;-37
2022/04/28 13:01:00;;;;;;;2.80;2.60;;;;;;;;;;5025743;28;20210;-35
2022/04/28 13:03:29;;;;;;;2.87;2.67;;;;;;;;;;5033228;28;20289;-38
2022/04/28 13:05:56;;;;;;;3.13;2.07;;;;;;;;;;5017516;28;20230;-34
2022/04/28 13:08:23;;;;;;;4.43;2.87;;;;;;;;;;5028460;28;20199;-38
2022/04/28 13:10:50;;;;;;;2.30;2.10;;;;;;;;;;5017300;28;20302;-37
2022/04/28 13:13:17;;;;;;;2.37;1.90;;;;;;;;;;5013837;28;20204;-39
2022/04/28 13:15:46;;;;;;;3.10;2.30;;;;;;;;;;5022528;28;20222;-31
2022/04/28 13:18:13;;;;;;;2.30;2.10;;;;;;;;;;5030535;28;20210;-37
2022/04/28 13:20:40;;;;;;;4.97;2.20;;;;;;;;;;5025326;28;20207;-35
2022/04/28 13:23:07;;;;;;;2.23;2.03;;;;;;;;;;5031997;28;20209;-31
2022/04/28 13:25:34;;;;;;;2.53;2.33;;;;;;;;;;5027678;28;20646;-33
2022/04/28 13:28:02;;;;;;;3.47;2.50;;;;;;;;;;5025738;28;20206;-35
2022/04/28 13:30:29;;;;;;;2.93;2.73;;;;;;;;;;5016983;28;20334;-35
2022/04/28 13:32:58;;;;;;;2.40;2.20;;;;;;;;;;5013502;28;20213;-34
2022/04/28 13:35:25;;;;;;;2.83;2.50;;;;;;;;;;5019364;28;20261;-37
2022/04/28 13:37:52;;;;;;;3.10;2.20;;;;;;;;;;5022174;28;20211;-35
2022/04/28 13:40:19;;;;;;;3.63;2.60;;;;;;;;;;5009577;28;20227;-38
2022/04/28 13:42:46;;;;;;;1.90;1.80;;;;;;;;;;5013740;28;20222;-39
2022/04/28 13:45:14;;;;;;;3.73;2.47;;;;;;;;;;5014842;28;20226;-35
2022/04/28 13:47:41;;;;;;;4.63;2.30;;;;;;;;;;5032641;28;20203;-38
2022/04/28 13:50:09;;;;;;;2.50;2.30;;;;;;;;;;5028008;28;20310;-37
2022/04/28 13:52:37;;;;;;;2.57;2.37;;;;;;;;;;5012377;28;20211;-39
2022/04/28 13:55:04;;;;;;;2.53;2.27;;;;;;;;;;5011684;28;20203;-37
2022/04/28 13:57:31;;;;;;;2.77;2.57;;;;;;;;;;5017677;28;20245;-34
2022/04/28 14:00:00;;;;;;;2.50;2.03;;;;;;;;;;5024348;28;20210;-36
2022/04/28 14:02:27;;;;;;;4.07;2.00;;;;;;;;;;5032930;28;20198;-36
2022/04/28 14:04:54;;;;;;;3.23;2.20;;;;;;;;;;5018407;28;20209;-40
2022/04/28 14:07:23;;;;;;;3.50;2.47;;;;;;;;;;5019627;28;20207;-34
2022/04/28 14:09:50;;;;;;;2.40;2.20;;;;;;;;;;5013260;28;20203;-37
2022/04/28 14:12:18;;;;;;;2.17;2.07;;;;;;;;;;5021681;28;20215;-38
2022/04/28 14:14:45;;;;;;;2.80;2.60;;;;;;;;;;5022099;28;20207;-38
2022/04/28 14:17:12;;;;;;;1.97;1.87;;;;;;;;;;5032602;28;20310;-38
2022/04/28 14:19:39;;;;;;;5.63;2.77;;;;;;;;;;5013905;28;20210;-36
2022/04/28 14:22:07;;;;;;;2.93;2.63;;;;;;;;;;5018869;28;20201;-39
2022/04/28 14:24:35;;;;;;;5.93;2.57;;;;;;;;;;5012037;28;20207;-40
2022/04/28 14:27:02;;;;;;;2.40;2.20;;;;;;;;;;5015189;28;20234;-35
2022/04/28 14:29:29;;;;;;;2.77;2.57;;;;;;;;;;5031301;28;20221;-36
2022/04/28 14:31:57;;;;;;;3.07;2.77;;;;;;;;;;5023244;28;20210;-32
2022/04/28 14:34:24;;;;;;;2.97;2.73;;;;;;;;;;5030373;28;20284;-33
2022/04/28 14:36:51;;;;;;;3.03;2.57;;;;;;;;;;5028467;28;20226;-37
2022/04/28 14:39:18;;;;;;;2.87;2.67;;;;;;;;;;5031623;28;20206;-30
2022/04/28 14:41:47;;;;;;;2.43;2.23;;;;;;;;;;5018091;28;20204;-36
2022/04/28 14:44:15;;;;;;;8.53;5.30;;;;;;;;;;5022449;28;20230;-33
2022/04/28 14:46:42;;;;;;;10.83;6.90;;;;;;;;;;5030691;28;20296;-34
2022/04/28 14:54:40;;;;;;;2.80;2.60;;;;;;;;;;5014807;28;20222;-38
2022/04/28 14:57:09;;;;;;;3.53;2.47;;;;;;;;;;5020786;28;20222;-36
2022/04/28 14:59:36;;;;;;;3.23;2.87;;;;;;;;;;5025191;28;20213;-38
2022/04/28 15:02:04;;;;;;;4.93;2.47;;;;;;;;;;5023317;28;20253;-38
2022/04/28 15:04:31;;;;;;;3.27;2.53;;;;;;;;;;5014734;28;20207;-31
2022/04/28 15:06:58;;;;;;;3.87;2.50;;;;;;;;;;5024284;28;20230;-33
2022/04/28 15:09:26;;;;;;;2.60;2.40;;;;;;;;;;5026116;28;20277;-39
2022/04/28 15:11:53;;;;;;;2.97;2.67;;;;;;;;;;5026487;28;20204;-38
2022/04/28 15:14:22;;;;;;;2.53;2.30;;;;;;;;;;5018275;28;20312;-38
2022/04/28 15:16:49;;;;;;;3.20;2.63;;;;;;;;;;5025070;28;20227;-34
2022/04/28 15:19:16;;;;;;;3.17;2.03;;;;;;;;;;5021334;28;20202;-33
2022/04/28 15:21:43;;;;;;;3.07;2.10;;;;;;;;;;5015464;28;20307;-33
2022/04/28 15:24:11;;;;;;;2.57;2.37;;;;;;;;;;5027424;28;20203;-36
2022/04/28 15:26:38;;;;;;;3.80;2.20;;;;;;;;;;5025403;28;20241;-37
2022/04/28 15:29:05;;;;;;;2.50;2.30;;;;;;;;;;5028655;28;20231;-38
2022/04/28 15:31:36;;;;;;;2.40;2.20;;;;;;;;;;5030710;28;20238;-31
2022/04/28 15:34:03;;;;;;;3.03;2.20;;;;;;;;;;5033799;28;20218;-33